Time;durP1;ratioP1;P1;durP2;ratioP2;P2;SDS_P1;SDS_P2;PMS_P1;PMS_P2;Temp;Humidity;BMP_temperature;BMP_pressure;BME280_temperature;BME280_humidity;BME280_pressure;Samples;Min_cycle;Max_cycle;Signal;HPM_P1;HPM_P2
2023/06/03 00:00:23;;;;;;;0.10;0.10;;;;;;;;;;5058622;28;20205;-70
2023/06/03 00:02:52;;;;;;;0.10;0.10;;;;;;;;;;5081205;28;20281;-70
2023/06/03 00:05:19;;;;;;;0.10;0.10;;;;;;;;;;5058661;28;20233;-70
2023/06/03 00:07:45;;;;;;;0.10;0.10;;;;;;;;;;5081304;28;20239;-70
2023/06/03 00:10:11;;;;;;;0.10;0.10;;;;;;;;;;5057402;28;20276;-70
2023/06/03 00:12:39;;;;;;;0.10;0.10;;;;;;;;;;5081771;28;20233;-70
2023/06/03 00:15:07;;;;;;;0.10;0.10;;;;;;;;;;5067241;28;20425;-70
2023/06/03 00:17:33;;;;;;;0.10;0.10;;;;;;;;;;5055659;28;20223;-70
2023/06/03 00:20:06;;;;;;;0.10;0.10;;;;;;;;;;5066872;28;20205;-70
2023/06/03 00:22:32;;;;;;;0.53;0.53;;;;;;;;;;5055635;28;20452;-70
2023/06/03 00:24:59;;;;;;;0.10;0.10;;;;;;;;;;5066807;28;20235;-70
2023/06/03 00:27:25;;;;;;;0.10;0.10;;;;;;;;;;5072257;28;20236;-70
2023/06/03 00:29:53;;;;;;;0.10;0.10;;;;;;;;;;5066529;28;20289;-70
2023/06/03 00:32:19;;;;;;;0.93;0.93;;;;;;;;;;5072131;28;20300;-70
2023/06/03 00:34:46;;;;;;;0.10;0.10;;;;;;;;;;5066884;28;20212;-70
2023/06/03 00:37:12;;;;;;;0.10;0.10;;;;;;;;;;5071981;28;20238;-70
2023/06/03 00:39:38;;;;;;;0.10;0.10;;;;;;;;;;5066761;28;20235;-70
2023/06/03 00:42:05;;;;;;;0.10;0.10;;;;;;;;;;5071568;28;20263;-70
2023/06/03 00:44:31;;;;;;;0.10;0.10;;;;;;;;;;5066938;28;20276;-70
2023/06/03 00:46:59;;;;;;;0.10;0.10;;;;;;;;;;5070543;28;20304;-70
2023/06/03 00:49:26;;;;;;;0.10;0.10;;;;;;;;;;5067352;28;20281;-70
2023/06/03 00:51:52;;;;;;;0.10;0.10;;;;;;;;;;5069621;28;20262;-70
2023/06/03 00:54:18;;;;;;;0.10;0.10;;;;;;;;;;5068139;28;20276;-70
2023/06/03 00:56:45;;;;;;;0.10;0.10;;;;;;;;;;5068609;28;20348;-70
2023/06/03 00:59:13;;;;;;;0.10;0.10;;;;;;;;;;5069047;28;20261;-70
2023/06/03 01:01:42;;;;;;;0.10;0.10;;;;;;;;;;5067941;28;20491;-70
2023/06/03 01:04:10;;;;;;;0.10;0.10;;;;;;;;;;5069262;28;20281;-71
2023/06/03 01:06:45;;;;;;;0.10;0.10;;;;;;;;;;5067274;28;20244;-70
2023/06/03 01:09:15;;;;;;;0.10;0.10;;;;;;;;;;5067990;28;20234;-70
2023/06/03 01:11:45;;;;;;;0.10;0.10;;;;;;;;;;5067865;28;20313;-70
2023/06/03 01:14:16;;;;;;;0.10;0.10;;;;;;;;;;5069028;28;20272;-70
2023/06/03 01:16:44;;;;;;;0.10;0.10;;;;;;;;;;5067962;28;20241;-70
2023/06/03 01:19:17;;;;;;;0.10;0.10;;;;;;;;;;5068658;28;20226;-70
2023/06/03 01:21:45;;;;;;;0.10;0.10;;;;;;;;;;5068138;28;20264;-70
2023/06/03 01:24:18;;;;;;;0.10;0.10;;;;;;;;;;5068458;28;20207;-70
2023/06/03 01:26:45;;;;;;;0.10;0.10;;;;;;;;;;5068073;28;20444;-70
2023/06/03 01:29:11;;;;;;;0.10;0.10;;;;;;;;;;5068355;28;20218;-70
2023/06/03 01:31:38;;;;;;;0.10;0.10;;;;;;;;;;5067180;28;20239;-69
2023/06/03 01:34:04;;;;;;;0.60;0.60;;;;;;;;;;5069505;28;20272;-70
2023/06/03 01:36:31;;;;;;;0.10;0.10;;;;;;;;;;5066131;28;20462;-70
2023/06/03 01:38:57;;;;;;;0.10;0.10;;;;;;;;;;5070210;28;20254;-70
2023/06/03 01:41:26;;;;;;;0.10;0.10;;;;;;;;;;5065126;28;20486;-70
2023/06/03 01:43:52;;;;;;;0.10;0.10;;;;;;;;;;5070574;28;20207;-70
2023/06/03 01:46:18;;;;;;;0.10;0.10;;;;;;;;;;5064295;28;20243;-70
2023/06/03 01:48:45;;;;;;;0.10;0.10;;;;;;;;;;5071411;28;20274;-70
2023/06/03 01:51:11;;;;;;;0.10;0.10;;;;;;;;;;5063332;28;20306;-70
2023/06/03 01:53:38;;;;;;;0.10;0.10;;;;;;;;;;5072602;28;20462;-69
2023/06/03 01:56:04;;;;;;;0.10;0.10;;;;;;;;;;5062355;28;20265;-70
2023/06/03 01:58:32;;;;;;;0.10;0.10;;;;;;;;;;5073307;28;20269;-70
2023/06/03 02:00:59;;;;;;;0.10;0.10;;;;;;;;;;5062507;28;20240;-67
2023/06/03 02:03:25;;;;;;;0.10;0.10;;;;;;;;;;5074015;28;20392;-69
2023/06/03 02:05:51;;;;;;;0.10;0.10;;;;;;;;;;5060396;28;20238;-67
2023/06/03 02:08:18;;;;;;;0.10;0.10;;;;;;;;;;5074675;28;20204;-66
2023/06/03 02:10:45;;;;;;;0.10;0.10;;;;;;;;;;5059265;28;20256;-66
2023/06/03 02:13:12;;;;;;;0.10;0.10;;;;;;;;;;5075341;28;20204;-67
2023/06/03 02:15:41;;;;;;;0.10;0.10;;;;;;;;;;5058383;28;20309;-66
2023/06/03 02:18:08;;;;;;;0.10;0.10;;;;;;;;;;5076141;28;20400;-67
2023/06/03 02:20:34;;;;;;;0.10;0.10;;;;;;;;;;5057287;28;20443;-67
2023/06/03 02:23:02;;;;;;;0.10;0.10;;;;;;;;;;5076615;28;20383;-67
2023/06/03 02:25:29;;;;;;;0.10;0.10;;;;;;;;;;5057348;28;20247;-67
2023/06/03 02:27:56;;;;;;;0.10;0.10;;;;;;;;;;5076801;28;20278;-67
2023/06/03 02:30:24;;;;;;;0.10;0.10;;;;;;;;;;5056039;28;20239;-67
2023/06/03 02:32:52;;;;;;;0.10;0.10;;;;;;;;;;5077852;28;20364;-68
2023/06/03 02:35:18;;;;;;;0.10;0.10;;;;;;;;;;5055823;28;20232;-67
2023/06/03 02:37:45;;;;;;;0.10;0.10;;;;;;;;;;5078442;28;20262;-67
2023/06/03 02:40:12;;;;;;;0.10;0.10;;;;;;;;;;5054760;28;20206;-67
2023/06/03 02:42:38;;;;;;;0.10;0.10;;;;;;;;;;5079334;28;20226;-67
2023/06/03 02:45:05;;;;;;;0.10;0.10;;;;;;;;;;5064598;28;20274;-66
2023/06/03 02:47:31;;;;;;;0.10;0.10;;;;;;;;;;5069374;28;20241;-67
2023/06/03 02:49:59;;;;;;;0.10;0.10;;;;;;;;;;5064416;28;20229;-67
2023/06/03 02:52:26;;;;;;;0.10;0.10;;;;;;;;;;5069211;28;20247;-67
2023/06/03 02:54:52;;;;;;;0.10;0.10;;;;;;;;;;5063783;28;20279;-67
2023/06/03 02:57:22;;;;;;;0.10;0.10;;;;;;;;;;5069171;28;20265;-67
2023/06/03 02:59:48;;;;;;;0.10;0.10;;;;;;;;;;5064048;28;20237;-67
2023/06/03 03:02:16;;;;;;;0.10;0.10;;;;;;;;;;5069067;28;20297;-67
2023/06/03 03:04:42;;;;;;;0.10;0.10;;;;;;;;;;5064120;28;20211;-66
2023/06/03 03:07:10;;;;;;;0.10;0.10;;;;;;;;;;5068874;28;20243;-67
2023/06/03 03:09:38;;;;;;;0.10;0.10;;;;;;;;;;5063927;28;20245;-66
2023/06/03 03:12:04;;;;;;;0.10;0.10;;;;;;;;;;5068544;28;20241;-67
2023/06/03 03:14:31;;;;;;;0.10;0.10;;;;;;;;;;5064110;28;20278;-67
2023/06/03 03:16:57;;;;;;;0.33;0.33;;;;;;;;;;5067403;28;20249;-67
2023/06/03 03:19:24;;;;;;;0.10;0.10;;;;;;;;;;5064910;28;20269;-66
2023/06/03 03:21:51;;;;;;;0.10;0.10;;;;;;;;;;5066418;28;20242;-66
2023/06/03 03:24:19;;;;;;;0.10;0.10;;;;;;;;;;5065731;28;20277;-67
2023/06/03 03:26:45;;;;;;;0.10;0.10;;;;;;;;;;5065890;28;20243;-67
2023/06/03 03:29:12;;;;;;;0.10;0.10;;;;;;;;;;5065995;28;20285;-66
2023/06/03 03:31:38;;;;;;;0.10;0.10;;;;;;;;;;5064670;28;20504;-67
2023/06/03 03:34:07;;;;;;;0.10;0.10;;;;;;;;;;5067294;28;20451;-67
2023/06/03 03:36:36;;;;;;;0.10;0.10;;;;;;;;;;5064101;28;20248;-67
2023/06/03 03:39:04;;;;;;;0.10;0.10;;;;;;;;;;5067729;28;20419;-67
2023/06/03 03:41:32;;;;;;;0.10;0.10;;;;;;;;;;5063802;28;20349;-67
2023/06/03 03:43:58;;;;;;;0.10;0.10;;;;;;;;;;5068102;28;20286;-71
2023/06/03 03:46:25;;;;;;;0.10;0.10;;;;;;;;;;5063204;28;20311;-67
2023/06/03 03:48:51;;;;;;;0.10;0.10;;;;;;;;;;5069107;28;20242;-67
2023/06/03 03:51:18;;;;;;;0.10;0.10;;;;;;;;;;5062366;28;20240;-67
2023/06/03 03:53:45;;;;;;;0.10;0.10;;;;;;;;;;5069970;28;20208;-67
2023/06/03 03:56:16;;;;;;;0.17;0.17;;;;;;;;;;5060847;28;20503;-66
2023/06/03 03:58:44;;;;;;;0.10;0.10;;;;;;;;;;5070145;28;20236;-67
2023/06/03 04:01:12;;;;;;;0.10;0.10;;;;;;;;;;5060580;28;20304;-66
2023/06/03 04:03:40;;;;;;;0.10;0.10;;;;;;;;;;5070855;28;20418;-67
2023/06/03 04:06:07;;;;;;;0.10;0.10;;;;;;;;;;5060713;28;20244;-67
2023/06/03 04:08:39;;;;;;;0.10;0.10;;;;;;;;;;5070661;28;20210;-67
2023/06/03 04:11:06;;;;;;;0.10;0.10;;;;;;;;;;5060555;28;20247;-67
2023/06/03 04:13:34;;;;;;;0.10;0.10;;;;;;;;;;5071250;28;20257;-67
2023/06/03 04:16:04;;;;;;;0.10;0.10;;;;;;;;;;5059723;28;20302;-67
2023/06/03 04:18:31;;;;;;;0.10;0.10;;;;;;;;;;5071150;28;20249;-67
2023/06/03 04:20:59;;;;;;;0.10;0.10;;;;;;;;;;5059528;28;20240;-66
2023/06/03 04:23:27;;;;;;;0.10;0.10;;;;;;;;;;5071811;28;20213;-67
2023/06/03 04:25:55;;;;;;;0.10;0.10;;;;;;;;;;5058671;28;20301;-66
2023/06/03 04:28:22;;;;;;;0.10;0.10;;;;;;;;;;5071987;28;20256;-67
2023/06/03 04:30:48;;;;;;;0.10;0.10;;;;;;;;;;5057923;28;20345;-66
2023/06/03 04:33:16;;;;;;;0.10;0.10;;;;;;;;;;5073228;28;20532;-67
2023/06/03 04:35:42;;;;;;;0.10;0.10;;;;;;;;;;5057416;28;20252;-67
2023/06/03 04:38:08;;;;;;;0.10;0.10;;;;;;;;;;5073975;28;20231;-67
2023/06/03 04:40:37;;;;;;;0.10;0.10;;;;;;;;;;5056417;28;20256;-67
2023/06/03 04:43:03;;;;;;;0.10;0.10;;;;;;;;;;5074645;28;20193;-67
2023/06/03 04:45:31;;;;;;;0.10;0.10;;;;;;;;;;5058082;28;20247;-67
2023/06/03 04:48:01;;;;;;;0.10;0.10;;;;;;;;;;5078486;28;20223;-67
2023/06/03 04:50:35;;;;;;;0.10;0.10;;;;;;;;;;5059108;28;20264;-67
2023/06/03 04:53:01;;;;;;;0.10;0.10;;;;;;;;;;5078445;28;20413;-67
2023/06/03 04:55:28;;;;;;;0.10;0.10;;;;;;;;;;5059076;28;20291;-67
2023/06/03 04:57:54;;;;;;;0.10;0.10;;;;;;;;;;5078838;28;20259;-67
2023/06/03 05:00:21;;;;;;;0.10;0.10;;;;;;;;;;5057469;28;20231;-67
2023/06/03 05:02:55;;;;;;;0.10;0.10;;;;;;;;;;5079670;28;20200;-67
2023/06/03 05:05:22;;;;;;;0.10;0.10;;;;;;;;;;5057799;28;20197;-67
2023/06/03 05:07:50;;;;;;;0.10;0.10;;;;;;;;;;5079448;28;20192;-67
2023/06/03 05:10:17;;;;;;;0.10;0.10;;;;;;;;;;5057201;28;20427;-67
2023/06/03 05:12:43;;;;;;;0.10;0.10;;;;;;;;;;5080459;28;20229;-67
2023/06/03 05:15:10;;;;;;;0.47;0.47;;;;;;;;;;5056435;28;20212;-67
2023/06/03 05:17:37;;;;;;;0.10;0.10;;;;;;;;;;5080885;28;20213;-67
2023/06/03 05:20:05;;;;;;;0.10;0.10;;;;;;;;;;5066202;28;20226;-66
2023/06/03 05:22:31;;;;;;;0.10;0.10;;;;;;;;;;5071141;28;20569;-67
2023/06/03 05:24:59;;;;;;;0.10;0.10;;;;;;;;;;5066146;28;20412;-67
2023/06/03 05:27:25;;;;;;;0.10;0.10;;;;;;;;;;5071107;28;20254;-67
2023/06/03 05:29:51;;;;;;;0.10;0.10;;;;;;;;;;5065537;28;20244;-67
2023/06/03 05:32:18;;;;;;;0.10;0.10;;;;;;;;;;5070877;28;20266;-68
2023/06/03 05:34:44;;;;;;;0.10;0.10;;;;;;;;;;5065920;28;20214;-66
2023/06/03 05:37:10;;;;;;;0.10;0.10;;;;;;;;;;5070951;28;20243;-66
2023/06/03 05:39:37;;;;;;;0.10;0.10;;;;;;;;;;5065852;28;20454;-67
2023/06/03 05:42:05;;;;;;;0.23;0.23;;;;;;;;;;5070305;28;20241;-67
2023/06/03 05:44:31;;;;;;;0.10;0.10;;;;;;;;;;5065976;28;20274;-67
2023/06/03 05:46:58;;;;;;;0.10;0.10;;;;;;;;;;5069426;28;20253;-66
2023/06/03 05:49:24;;;;;;;0.10;0.10;;;;;;;;;;5066749;28;20233;-67
2023/06/03 05:51:51;;;;;;;0.20;0.20;;;;;;;;;;5068244;28;20592;-67
2023/06/03 05:54:17;;;;;;;0.10;0.10;;;;;;;;;;5067575;28;20239;-67
2023/06/03 05:56:43;;;;;;;0.10;0.10;;;;;;;;;;5067052;28;20273;-67
2023/06/03 05:59:11;;;;;;;0.10;0.10;;;;;;;;;;5068259;28;20300;-67
2023/06/03 06:01:37;;;;;;;0.10;0.10;;;;;;;;;;5066142;28;20617;-67
2023/06/03 06:04:04;;;;;;;0.10;0.10;;;;;;;;;;5069510;28;20232;-67
2023/06/03 06:06:30;;;;;;;0.10;0.10;;;;;;;;;;5065454;28;20514;-67
2023/06/03 06:08:57;;;;;;;0.10;0.10;;;;;;;;;;5069930;28;20516;-67
2023/06/03 06:11:23;;;;;;;0.10;0.10;;;;;;;;;;5064409;28;20306;-67
2023/06/03 06:13:49;;;;;;;0.10;0.10;;;;;;;;;;5070815;28;20468;-67
2023/06/03 06:16:17;;;;;;;0.10;0.10;;;;;;;;;;5063452;28;20417;-67
2023/06/03 06:18:43;;;;;;;0.10;0.10;;;;;;;;;;5071466;28;20244;-67
2023/06/03 06:21:10;;;;;;;0.10;0.10;;;;;;;;;;5062646;28;20266;-67
2023/06/03 06:23:37;;;;;;;0.10;0.10;;;;;;;;;;5072172;28;20213;-67
2023/06/03 06:26:03;;;;;;;0.20;0.20;;;;;;;;;;5061500;28;20242;-67
2023/06/03 06:28:32;;;;;;;0.10;0.10;;;;;;;;;;5072508;28;20285;-68
2023/06/03 06:31:04;;;;;;;1.20;1.20;;;;;;;;;;5060716;28;20246;-67
2023/06/03 06:33:33;;;;;;;0.10;0.10;;;;;;;;;;5072920;28;20273;-66
2023/06/03 06:36:01;;;;;;;0.10;0.10;;;;;;;;;;5061090;28;20558;-67
2023/06/03 06:38:28;;;;;;;0.10;0.10;;;;;;;;;;5072861;28;20246;-67
2023/06/03 06:40:54;;;;;;;0.10;0.10;;;;;;;;;;5060018;28;20308;-67
2023/06/03 06:43:25;;;;;;;0.10;0.10;;;;;;;;;;5073874;28;20409;-67
2023/06/03 06:45:51;;;;;;;0.10;0.10;;;;;;;;;;5059796;28;20590;-67
2023/06/03 06:48:18;;;;;;;0.10;0.10;;;;;;;;;;5073916;28;20205;-67
2023/06/03 06:50:49;;;;;;;0.10;0.10;;;;;;;;;;5058577;28;20252;-67
2023/06/03 06:53:18;;;;;;;0.10;0.10;;;;;;;;;;5074161;28;20241;-67
2023/06/03 06:55:47;;;;;;;0.10;0.10;;;;;;;;;;5058630;28;20490;-67
2023/06/03 06:58:14;;;;;;;0.10;0.10;;;;;;;;;;5074171;28;20513;-67
2023/06/03 07:00:41;;;;;;;0.10;0.10;;;;;;;;;;5058205;28;20304;-67
2023/06/03 07:03:08;;;;;;;0.10;0.10;;;;;;;;;;5074991;28;20272;-67
2023/06/03 07:05:35;;;;;;;0.10;0.10;;;;;;;;;;5057364;28;20322;-67
2023/06/03 07:08:03;;;;;;;0.10;0.10;;;;;;;;;;5075101;28;20193;-67
2023/06/03 07:10:29;;;;;;;0.10;0.10;;;;;;;;;;5056579;28;20315;-67
2023/06/03 07:12:55;;;;;;;0.10;0.10;;;;;;;;;;5076450;28;20288;-67
2023/06/03 07:15:22;;;;;;;0.10;0.10;;;;;;;;;;5055246;28;20213;-67
2023/06/03 07:17:49;;;;;;;0.10;0.10;;;;;;;;;;5077436;28;20386;-67
2023/06/03 07:20:19;;;;;;;0.10;0.10;;;;;;;;;;5054510;28;20492;-67
2023/06/03 07:22:45;;;;;;;0.10;0.10;;;;;;;;;;5077882;28;20217;-67
2023/06/03 07:25:17;;;;;;;0.10;0.10;;;;;;;;;;5053817;28;20206;-67
2023/06/03 07:27:44;;;;;;;0.10;0.10;;;;;;;;;;5078151;28;20245;-67
2023/06/03 07:30:15;;;;;;;0.10;0.10;;;;;;;;;;5053501;28;20445;-68
2023/06/03 07:32:41;;;;;;;0.20;0.20;;;;;;;;;;5077980;28;20194;-67
2023/06/03 07:35:08;;;;;;;0.10;0.10;;;;;;;;;;5060814;28;20457;-69
2023/06/03 07:37:36;;;;;;;0.10;0.10;;;;;;;;;;5078715;28;20285;-67
2023/06/03 07:40:02;;;;;;;0.00;0.00;;;;;;;;;;5063791;28;20312;-67
2023/06/03 07:42:30;;;;;;;0.10;0.10;;;;;;;;;;5068798;28;20264;-67
2023/06/03 07:44:56;;;;;;;0.10;0.10;;;;;;;;;;5063800;28;20404;-67
2023/06/03 07:47:25;;;;;;;0.10;0.10;;;;;;;;;;5068758;28;20253;-67
2023/06/03 07:49:52;;;;;;;0.10;0.10;;;;;;;;;;5063707;28;20269;-67
2023/06/03 07:52:20;;;;;;;0.10;0.10;;;;;;;;;;5068660;28;20640;-67
2023/06/03 07:54:46;;;;;;;0.10;0.10;;;;;;;;;;5063745;28;20204;-67
2023/06/03 07:57:13;;;;;;;0.10;0.10;;;;;;;;;;5068624;28;20492;-67
2023/06/03 07:59:43;;;;;;;0.10;0.10;;;;;;;;;;5063415;28;20305;-67
2023/06/03 08:02:11;;;;;;;0.10;0.10;;;;;;;;;;5068608;28;20238;-67
2023/06/03 08:04:39;;;;;;;0.10;0.10;;;;;;;;;;5063535;28;20203;-67
2023/06/03 08:07:06;;;;;;;0.10;0.10;;;;;;;;;;5068257;28;20585;-67
2023/06/03 08:09:34;;;;;;;0.10;0.10;;;;;;;;;;5063134;28;20277;-67
2023/06/03 08:12:01;;;;;;;0.00;0.00;;;;;;;;;;5067512;28;20268;-67
2023/06/03 08:14:30;;;;;;;0.00;0.00;;;;;;;;;;5064110;28;20204;-67
2023/06/03 08:17:02;;;;;;;0.10;0.10;;;;;;;;;;5066879;28;20298;-67
2023/06/03 08:19:28;;;;;;;0.00;0.00;;;;;;;;;;5065216;28;20256;-67
2023/06/03 08:21:55;;;;;;;0.10;0.10;;;;;;;;;;5070536;28;20304;-67
2023/06/03 08:24:21;;;;;;;0.10;0.10;;;;;;;;;;5068331;28;20275;-67
2023/06/03 08:26:47;;;;;;;0.08;0.08;;;;;;;;;;5069481;28;20249;-68
2023/06/03 08:29:14;;;;;;;0.10;0.10;;;;;;;;;;5069214;28;20283;-67
2023/06/03 08:31:40;;;;;;;0.05;0.05;;;;;;;;;;5068458;28;20312;-67
2023/06/03 08:34:08;;;;;;;0.10;0.10;;;;;;;;;;5070450;28;20276;-67
2023/06/03 08:36:35;;;;;;;0.10;0.10;;;;;;;;;;5067683;28;20314;-67
2023/06/03 08:39:02;;;;;;;0.10;0.10;;;;;;;;;;5070910;28;20207;-67
2023/06/03 08:41:31;;;;;;;0.10;0.10;;;;;;;;;;5066695;28;20255;-67
2023/06/03 08:44:02;;;;;;;0.05;0.05;;;;;;;;;;5071314;28;20280;-67
2023/06/03 08:46:31;;;;;;;0.10;0.10;;;;;;;;;;5066740;28;20254;-67
2023/06/03 08:49:03;;;;;;;0.10;0.10;;;;;;;;;;5071262;28;20451;-67
2023/06/03 08:51:36;;;;;;;0.10;0.10;;;;;;;;;;5066946;28;20237;-67
2023/06/03 08:54:03;;;;;;;0.00;0.00;;;;;;;;;;5070546;28;20210;-67
2023/06/03 08:56:29;;;;;;;0.10;0.10;;;;;;;;;;5066671;28;20247;-66
2023/06/03 08:59:01;;;;;;;0.10;0.10;;;;;;;;;;5071238;28;20271;-67
2023/06/03 09:01:28;;;;;;;0.10;0.10;;;;;;;;;;5066190;28;20258;-67
2023/06/03 09:03:55;;;;;;;0.08;0.08;;;;;;;;;;5071243;28;20203;-67
2023/06/03 09:06:21;;;;;;;0.00;0.00;;;;;;;;;;5065412;28;20299;-67
2023/06/03 09:08:50;;;;;;;0.10;0.10;;;;;;;;;;5072181;28;20204;-67
2023/06/03 09:11:17;;;;;;;0.38;0.38;;;;;;;;;;5064656;28;20269;-67
2023/06/03 09:13:44;;;;;;;0.10;0.10;;;;;;;;;;5072573;28;20239;-67
2023/06/03 09:16:10;;;;;;;0.10;0.10;;;;;;;;;;5063898;28;20239;-67
2023/06/03 09:18:37;;;;;;;0.00;0.00;;;;;;;;;;5073346;28;20206;-67
2023/06/03 09:21:04;;;;;;;0.00;0.00;;;;;;;;;;5062920;28;20302;-67
2023/06/03 09:23:31;;;;;;;0.10;0.10;;;;;;;;;;5073991;28;20210;-67
2023/06/03 09:25:59;;;;;;;0.10;0.10;;;;;;;;;;5062018;28;20460;-67
2023/06/03 09:28:25;;;;;;;0.10;0.10;;;;;;;;;;5074602;28;20654;-67
2023/06/03 09:30:52;;;;;;;0.10;0.10;;;;;;;;;;5060440;28;20301;-67
2023/06/03 09:33:18;;;;;;;0.10;0.10;;;;;;;;;;5075270;28;20280;-67
2023/06/03 09:36:04;;;;;;;0.00;0.00;;;;;;;;;;5060020;28;20262;-66
2023/06/03 09:38:45;;;;;;;0.05;0.05;;;;;;;;;;5073680;28;20273;-67
2023/06/03 09:41:15;;;;;;;0.00;0.00;;;;;;;;;;5063681;28;20242;-67
2023/06/03 09:43:41;;;;;;;0.00;0.00;;;;;;;;;;5072365;28;20210;-67
2023/06/03 09:46:09;;;;;;;0.05;0.05;;;;;;;;;;5063022;28;20466;-67
2023/06/03 09:48:35;;;;;;;0.05;0.05;;;;;;;;;;5072931;28;20211;-67
2023/06/03 09:51:02;;;;;;;0.00;0.00;;;;;;;;;;5061952;28;20306;-67
2023/06/03 09:53:29;;;;;;;0.10;0.10;;;;;;;;;;5073896;28;20208;-67
2023/06/03 09:55:55;;;;;;;0.10;0.10;;;;;;;;;;5060919;28;20263;-67
2023/06/03 09:58:23;;;;;;;0.30;0.30;;;;;;;;;;5074669;28;20238;-68
2023/06/03 10:00:50;;;;;;;0.10;0.10;;;;;;;;;;5060399;28;20248;-67
2023/06/03 10:03:18;;;;;;;0.03;0.03;;;;;;;;;;5075129;28;20421;-67
2023/06/03 10:05:45;;;;;;;0.10;0.10;;;;;;;;;;5059676;28;20249;-67
2023/06/03 10:08:11;;;;;;;0.00;0.00;;;;;;;;;;5075706;28;20436;-68
2023/06/03 10:10:55;;;;;;;0.10;0.10;;;;;;;;;;5058480;28;20241;-68
2023/06/03 10:13:23;;;;;;;0.05;0.05;;;;;;;;;;5074407;28;20394;-68
2023/06/03 10:15:52;;;;;;;0.10;0.10;;;;;;;;;;5060082;28;20590;-68
2023/06/03 10:18:18;;;;;;;0.10;0.10;;;;;;;;;;5074727;28;20210;-68
2023/06/03 10:20:44;;;;;;;0.10;0.10;;;;;;;;;;5059360;28;20240;-68
2023/06/03 10:23:12;;;;;;;0.00;0.00;;;;;;;;;;5075464;28;20280;-68
2023/06/03 10:25:41;;;;;;;0.05;0.05;;;;;;;;;;5058400;28;20254;-68
2023/06/03 10:28:08;;;;;;;0.05;0.05;;;;;;;;;;5075638;28;20492;-67
2023/06/03 10:30:35;;;;;;;0.00;0.00;;;;;;;;;;5057897;28;20498;-68
2023/06/03 10:33:04;;;;;;;0.10;0.10;;;;;;;;;;5076178;28;20235;-68
2023/06/03 10:35:31;;;;;;;0.00;0.00;;;;;;;;;;5057048;28;20254;-68
2023/06/03 10:37:59;;;;;;;0.00;0.00;;;;;;;;;;5076839;28;20207;-68
2023/06/03 10:40:25;;;;;;;0.10;0.10;;;;;;;;;;5056212;28;20297;-68
2023/06/03 10:42:54;;;;;;;0.00;0.00;;;;;;;;;;5076239;28;20294;-68
2023/06/03 10:45:20;;;;;;;0.00;0.00;;;;;;;;;;5056026;28;20501;-68
2023/06/03 10:47:48;;;;;;;0.00;0.00;;;;;;;;;;5077725;28;20196;-68
2023/06/03 10:50:19;;;;;;;0.05;0.05;;;;;;;;;;5054488;28;20221;-68
2023/06/03 10:52:51;;;;;;;0.08;0.08;;;;;;;;;;5077966;28;20226;-70
2023/06/03 10:55:25;;;;;;;0.10;0.10;;;;;;;;;;5054855;28;20233;-68
2023/06/03 10:57:53;;;;;;;0.00;0.00;;;;;;;;;;5077324;28;20194;-68
2023/06/03 11:00:34;;;;;;;0.00;0.00;;;;;;;;;;5055025;28;20285;-68
2023/06/03 11:03:05;;;;;;;0.00;0.00;;;;;;;;;;5075223;28;20247;-69
2023/06/03 11:05:33;;;;;;;0.05;0.05;;;;;;;;;;5056915;28;20241;-68
2023/06/03 11:07:59;;;;;;;0.05;0.05;;;;;;;;;;5075929;28;20239;-68
2023/06/03 11:10:41;;;;;;;0.10;0.10;;;;;;;;;;5056125;28;20398;-69
2023/06/03 11:13:08;;;;;;;0.10;0.10;;;;;;;;;;5075171;28;20390;-69
2023/06/03 11:15:53;;;;;;;0.10;0.10;;;;;;;;;;5056913;28;20245;-69
2023/06/03 11:18:19;;;;;;;0.75;0.75;;;;;;;;;;5073278;28;20265;-68
2023/06/03 11:20:47;;;;;;;0.10;0.10;;;;;;;;;;5058425;28;20303;-68
2023/06/03 11:23:39;;;;;;;0.10;0.10;;;;;;;;;;5074082;28;20210;-68
2023/06/03 11:26:22;;;;;;;0.10;0.10;;;;;;;;;;5060694;28;20295;-68
2023/06/03 11:28:48;;;;;;;0.10;0.10;;;;;;;;;;5068640;28;20527;-68
2023/06/03 11:31:18;;;;;;;0.00;0.00;;;;;;;;;;5061971;28;20492;-68
2023/06/03 11:34:11;;;;;;;0.00;0.00;;;;;;;;;;5069909;28;20204;-68
2023/06/03 11:36:55;;;;;;;0.00;0.00;;;;;;;;;;5064678;28;20484;-68
2023/06/03 11:39:23;;;;;;;0.10;0.10;;;;;;;;;;5065717;28;20397;-71
2023/06/03 11:42:00;;;;;;;0.00;0.00;;;;;;;;;;5066091;28;20234;-72
2023/06/03 11:44:26;;;;;;;0.00;0.00;;;;;;;;;;5064870;28;20243;-72
2023/06/03 11:46:53;;;;;;;0.00;0.00;;;;;;;;;;5066709;28;20576;-72
2023/06/03 11:49:21;;;;;;;0.10;0.10;;;;;;;;;;5065471;28;20215;-72
2023/06/03 11:51:49;;;;;;;0.00;0.00;;;;;;;;;;5066054;28;20238;-72
2023/06/03 11:54:16;;;;;;;0.00;0.00;;;;;;;;;;5068404;28;20234;-72
2023/06/03 11:56:46;;;;;;;0.05;0.05;;;;;;;;;;5069436;28;20434;-72
2023/06/03 11:59:14;;;;;;;0.10;0.10;;;;;;;;;;5070485;28;20301;-72
2023/06/03 12:01:54;;;;;;;0.00;0.00;;;;;;;;;;5068622;28;20245;-72
2023/06/03 12:04:20;;;;;;;0.00;0.00;;;;;;;;;;5069588;28;20415;-72
2023/06/03 12:06:46;;;;;;;0.00;0.00;;;;;;;;;;5069503;28;20254;-72
2023/06/03 12:09:16;;;;;;;0.00;0.00;;;;;;;;;;5069969;28;20211;-71
2023/06/03 12:11:43;;;;;;;0.00;0.00;;;;;;;;;;5069059;28;20475;-74
2023/06/03 12:14:10;;;;;;;0.05;0.05;;;;;;;;;;5070111;28;20424;-72
2023/06/03 12:16:37;;;;;;;0.00;0.00;;;;;;;;;;5068255;28;20254;-72
2023/06/03 12:19:05;;;;;;;0.03;0.03;;;;;;;;;;5071036;28;20206;-72
2023/06/03 12:21:32;;;;;;;0.00;0.00;;;;;;;;;;5067662;28;20514;-72
2023/06/03 12:23:59;;;;;;;0.00;0.00;;;;;;;;;;5071644;28;20211;-72
2023/06/03 12:26:25;;;;;;;0.00;0.00;;;;;;;;;;5066271;28;20258;-72
2023/06/03 12:28:52;;;;;;;0.10;0.10;;;;;;;;;;5071873;28;20219;-72
2023/06/03 12:31:20;;;;;;;0.10;0.10;;;;;;;;;;5065251;28;20231;-72
2023/06/03 12:33:46;;;;;;;0.10;0.10;;;;;;;;;;5072888;28;20208;-72
2023/06/03 12:36:13;;;;;;;0.05;0.05;;;;;;;;;;5064600;28;20239;-72
2023/06/03 12:38:55;;;;;;;0.00;0.00;;;;;;;;;;5073558;28;20204;-72
2023/06/03 12:41:22;;;;;;;0.65;0.65;;;;;;;;;;5065845;28;20238;-72
2023/06/03 12:43:49;;;;;;;0.00;0.00;;;;;;;;;;5072269;28;20270;-73
2023/06/03 12:46:17;;;;;;;7.32;2.92;;;;;;;;;;5064757;28;20243;-72
2023/06/03 12:48:45;;;;;;;0.10;0.10;;;;;;;;;;5072931;28;20279;-72
2023/06/03 12:51:25;;;;;;;0.00;0.00;;;;;;;;;;5064574;28;20258;-72
2023/06/03 12:53:55;;;;;;;0.00;0.00;;;;;;;;;;5072121;28;20382;-72
2023/06/03 12:56:22;;;;;;;0.00;0.00;;;;;;;;;;5065760;28;20255;-72
2023/06/03 12:58:48;;;;;;;0.00;0.00;;;;;;;;;;5072296;28;20224;-73
2023/06/03 13:01:14;;;;;;;0.08;0.08;;;;;;;;;;5064583;28;20278;-72
2023/06/03 13:03:41;;;;;;;0.00;0.00;;;;;;;;;;5073224;28;20211;-72
2023/06/03 13:06:09;;;;;;;0.10;0.10;;;;;;;;;;5062814;28;20443;-72
2023/06/03 13:08:35;;;;;;;0.00;0.00;;;;;;;;;;5073832;28;20235;-72
2023/06/03 13:11:01;;;;;;;0.00;0.00;;;;;;;;;;5062672;28;20358;-72
2023/06/03 13:13:30;;;;;;;0.00;0.00;;;;;;;;;;5074024;28;20502;-72
2023/06/03 13:15:57;;;;;;;0.10;0.10;;;;;;;;;;5062025;28;20243;-72
2023/06/03 13:18:24;;;;;;;0.00;0.00;;;;;;;;;;5074846;28;20204;-72
2023/06/03 13:20:50;;;;;;;0.10;0.10;;;;;;;;;;5060809;28;20303;-72
2023/06/03 13:23:18;;;;;;;0.00;0.00;;;;;;;;;;5075574;28;20240;-72
2023/06/03 13:25:44;;;;;;;0.10;0.10;;;;;;;;;;5060445;28;20572;-73
2023/06/03 13:28:11;;;;;;;0.10;0.10;;;;;;;;;;5076103;28;20208;-72
2023/06/03 13:30:37;;;;;;;0.00;0.00;;;;;;;;;;5059044;28;20255;-72
2023/06/03 13:33:03;;;;;;;0.00;0.00;;;;;;;;;;5077361;28;20195;-72
2023/06/03 13:35:30;;;;;;;0.05;0.05;;;;;;;;;;5058299;28;20258;-72
2023/06/03 13:37:56;;;;;;;2.15;2.05;;;;;;;;;;5077921;28;20259;-72
2023/06/03 13:40:24;;;;;;;0.00;0.00;;;;;;;;;;5057315;28;20279;-73
2023/06/03 13:42:51;;;;;;;0.10;0.10;;;;;;;;;;5078560;28;20218;-72
2023/06/03 13:45:17;;;;;;;0.00;0.00;;;;;;;;;;5056412;28;20238;-72
2023/06/03 13:47:43;;;;;;;0.00;0.00;;;;;;;;;;5079432;28;20264;-72
2023/06/03 13:50:10;;;;;;;0.00;0.00;;;;;;;;;;5055790;28;20215;-72
2023/06/03 13:52:37;;;;;;;0.00;0.00;;;;;;;;;;5080500;28;20200;-72
2023/06/03 13:55:03;;;;;;;0.00;0.00;;;;;;;;;;5064961;28;20204;-72
2023/06/03 13:57:31;;;;;;;0.00;0.00;;;;;;;;;;5070388;28;20240;-72
2023/06/03 13:59:57;;;;;;;0.10;0.10;;;;;;;;;;5065164;28;20251;-72
2023/06/03 14:02:24;;;;;;;0.00;0.00;;;;;;;;;;5070041;28;20235;-72
2023/06/03 14:04:50;;;;;;;0.10;0.10;;;;;;;;;;5065047;28;20242;-72
2023/06/03 14:07:17;;;;;;;0.00;0.00;;;;;;;;;;5070437;28;20243;-72
2023/06/03 14:09:43;;;;;;;0.00;0.00;;;;;;;;;;5064537;28;20236;-72
2023/06/03 14:12:11;;;;;;;0.00;0.00;;;;;;;;;;5069857;28;20258;-73
2023/06/03 14:14:39;;;;;;;0.00;0.00;;;;;;;;;;5064884;28;20204;-72
2023/06/03 14:17:07;;;;;;;0.00;0.00;;;;;;;;;;5069430;28;20239;-72
2023/06/03 14:19:33;;;;;;;0.10;0.10;;;;;;;;;;5065067;28;20242;-73
2023/06/03 14:22:00;;;;;;;0.00;0.00;;;;;;;;;;5068746;28;20257;-72
2023/06/03 14:24:26;;;;;;;0.10;0.10;;;;;;;;;;5065741;28;20405;-72
2023/06/03 14:26:52;;;;;;;0.10;0.10;;;;;;;;;;5067785;28;20314;-72
2023/06/03 14:29:19;;;;;;;0.03;0.03;;;;;;;;;;5066198;28;20222;-72
2023/06/03 14:31:47;;;;;;;0.00;0.00;;;;;;;;;;5066670;28;20354;-73
2023/06/03 14:34:13;;;;;;;0.10;0.10;;;;;;;;;;5067476;28;20402;-72
2023/06/03 14:36:39;;;;;;;0.00;0.00;;;;;;;;;;5066046;28;20298;-72
2023/06/03 14:39:06;;;;;;;0.00;0.00;;;;;;;;;;5069037;28;20224;-69
2023/06/03 14:41:33;;;;;;;0.55;0.55;;;;;;;;;;5064873;28;20246;-69
2023/06/03 14:43:59;;;;;;;0.00;0.00;;;;;;;;;;5068780;28;20282;-69
2023/06/03 14:46:26;;;;;;;0.10;0.10;;;;;;;;;;5063982;28;20262;-69